createdAt,value
2019-02-11T00:02:23.803Z,69.47
2019-02-11T00:04:57.369Z,69.32
2019-02-11T00:07:30.944Z,69.12
2019-02-11T00:10:05.068Z,69.07
2019-02-11T00:12:38.427Z,69.17
2019-02-11T00:15:11.893Z,68.84
2019-02-11T00:17:45.384Z,68.99
2019-02-11T00:20:18.862Z,68.03
2019-02-11T00:22:52.415Z,69.09
2019-02-11T00:25:25.896Z,69.00
2019-02-11T00:27:59.361Z,68.75
2019-02-11T00:30:34.282Z,68.63
2019-02-11T00:33:08.113Z,68.35
2019-02-11T00:35:41.667Z,68.52
2019-02-11T00:38:15.199Z,68.54
2019-02-11T00:40:48.736Z,68.25
2019-02-11T00:43:22.245Z,68.03
2019-02-11T00:45:55.771Z,68.17
2019-02-11T00:48:29.279Z,68.04
2019-02-11T00:51:02.803Z,67.97
2019-02-11T00:53:36.294Z,67.97
2019-02-11T00:56:09.805Z,67.93
2019-02-11T00:58:43.272Z,67.89
2019-02-11T01:01:16.732Z,67.86
2019-02-11T01:03:50.145Z,68.14
2019-02-11T01:06:23.707Z,68.19
2019-02-11T01:08:57.139Z,67.96
2019-02-11T01:11:30.678Z,68.02
2019-02-11T01:14:04.166Z,67.95
2019-02-11T01:16:37.574Z,67.99
2019-02-11T01:19:11.037Z,68.00
2019-02-11T01:21:44.491Z,67.83
2019-02-11T01:24:17.951Z,67.89
2019-02-11T01:26:51.395Z,67.92
2019-02-11T01:29:24.821Z,67.89
2019-02-11T01:31:58.343Z,67.89
2019-02-11T01:34:31.778Z,68.02
2019-02-11T01:37:05.213Z,67.85
2019-02-11T01:39:38.688Z,67.81
2019-02-11T01:42:12.089Z,67.58
2019-02-11T01:44:45.502Z,67.58
2019-02-11T01:47:19.024Z,66.32
2019-02-11T01:49:52.474Z,67.43
2019-02-11T01:52:25.869Z,67.43
2019-02-11T01:54:59.312Z,67.19
2019-02-11T01:57:32.819Z,66.81
2019-02-11T02:00:13.993Z,66.81
2019-02-11T02:02:47.449Z,66.82
2019-02-11T02:05:20.896Z,67.01
2019-02-11T02:07:54.425Z,67.10
2019-02-11T02:10:27.914Z,67.02
2019-02-11T02:13:01.381Z,67.02
2019-02-11T02:15:34.903Z,66.90
2019-02-11T02:18:08.338Z,67.12
2019-02-11T02:20:41.800Z,67.39
2019-02-11T02:23:15.349Z,67.09
2019-02-11T02:25:48.876Z,67.35
2019-02-11T02:28:22.215Z,67.24
2019-02-11T02:30:55.681Z,67.34
2019-02-11T02:33:29.109Z,67.09
2019-02-11T02:36:02.726Z,67.08
2019-02-11T02:38:36.086Z,66.78
2019-02-11T02:41:09.528Z,67.10
2019-02-11T02:43:42.983Z,67.10
2019-02-11T02:46:16.672Z,67.16
2019-02-11T02:48:50.025Z,67.32
2019-02-11T02:51:23.476Z,67.26
2019-02-11T02:53:56.888Z,67.31
2019-02-11T02:56:30.355Z,67.44
2019-02-11T02:59:03.869Z,67.44
2019-02-11T03:01:37.450Z,67.56
2019-02-11T03:04:11.054Z,67.62
2019-02-11T03:06:44.616Z,67.35
2019-02-11T03:09:18.224Z,67.58
2019-02-11T03:11:51.839Z,67.58
2019-02-11T03:14:25.386Z,67.71
2019-02-11T03:16:58.900Z,67.84
2019-02-11T03:19:32.435Z,67.84
2019-02-11T03:22:05.849Z,67.68
2019-02-11T03:24:39.466Z,67.66
2019-02-11T03:27:12.984Z,67.66
2019-02-11T03:29:47.159Z,67.61
2019-02-11T03:32:20.714Z,67.48
2019-02-11T03:34:54.390Z,67.44
2019-02-11T03:37:27.766Z,67.71
2019-02-11T03:40:01.254Z,67.54
2019-02-11T03:42:34.811Z,67.20
2019-02-11T03:45:13.450Z,67.63
2019-02-11T03:47:46.927Z,67.64
2019-02-11T03:50:20.526Z,67.43
2019-02-11T03:52:54.040Z,67.36
2019-02-11T03:55:27.678Z,67.72
2019-02-11T03:58:01.194Z,67.33
2019-02-11T04:00:34.708Z,67.28
2019-02-11T04:03:08.261Z,67.42
2019-02-11T04:05:41.807Z,67.53
2019-02-11T04:08:15.357Z,67.37
2019-02-11T04:10:48.814Z,67.64
2019-02-11T04:13:22.350Z,67.51
2019-02-11T04:15:55.908Z,67.42
2019-02-11T04:18:29.297Z,67.40
2019-02-11T04:21:02.887Z,67.58
2019-02-11T04:23:36.407Z,67.60
2019-02-11T04:26:09.928Z,67.38
2019-02-11T04:28:43.591Z,67.40
2019-02-11T04:31:17.020Z,67.28
2019-02-11T04:33:50.480Z,67.38
2019-02-11T04:36:23.836Z,67.34
2019-02-11T04:38:57.542Z,67.20
2019-02-11T04:41:31.169Z,67.46
2019-02-11T04:44:04.883Z,67.62
2019-02-11T04:46:38.399Z,67.49
2019-02-11T04:49:12.024Z,66.79
2019-02-11T04:51:45.559Z,67.18
2019-02-11T04:54:19.123Z,67.16
2019-02-11T04:56:53.998Z,67.38
2019-02-11T04:59:27.500Z,67.28
2019-02-11T05:02:01.008Z,67.15
2019-02-11T05:04:34.596Z,67.31
2019-02-11T05:07:08.109Z,67.07
2019-02-11T05:09:41.587Z,67.22
2019-02-11T05:12:15.272Z,67.26
2019-02-11T05:14:48.797Z,67.38
2019-02-11T05:17:22.368Z,67.38
2019-02-11T05:19:55.861Z,67.19
2019-02-11T05:22:29.399Z,67.34
2019-02-11T05:25:03.015Z,67.31
2019-02-11T05:27:36.502Z,67.19
2019-02-11T05:30:13.310Z,67.22
2019-02-11T05:32:46.780Z,67.02
2019-02-11T05:35:20.412Z,67.18
2019-02-11T05:37:53.930Z,67.03
2019-02-11T05:40:27.437Z,66.84
2019-02-11T05:43:01.003Z,66.46
2019-02-11T05:45:34.554Z,66.92
2019-02-11T05:48:08.061Z,66.72
2019-02-11T05:50:41.675Z,66.91
2019-02-11T05:53:15.203Z,66.91
2019-02-11T05:55:48.836Z,66.55
2019-02-11T05:58:22.267Z,66.61
2019-02-11T06:00:55.857Z,66.63
2019-02-11T06:03:29.311Z,66.60
2019-02-11T06:06:02.948Z,66.42
2019-02-11T06:08:37.263Z,66.74
2019-02-11T06:11:10.818Z,66.74
2019-02-11T06:13:44.370Z,66.49
2019-02-11T06:16:17.887Z,66.68
2019-02-11T06:18:51.435Z,67.04
2019-02-11T06:21:25.003Z,66.28
2019-02-11T06:23:58.558Z,66.76
2019-02-11T06:26:32.130Z,66.51
2019-02-11T06:29:05.714Z,65.75
2019-02-11T06:31:39.184Z,66.61
2019-02-11T06:34:12.929Z,66.61
2019-02-11T06:36:46.278Z,65.56
2019-02-11T06:39:19.829Z,66.35
2019-02-11T06:41:53.481Z,66.41
2019-02-11T06:44:27.008Z,66.54
2019-02-11T06:47:00.627Z,66.63
2019-02-11T06:49:34.209Z,66.63
2019-02-11T06:52:07.702Z,66.96
2019-02-11T06:54:41.255Z,66.96
2019-02-11T06:57:14.688Z,66.83
2019-02-11T06:59:48.168Z,66.80
2019-02-11T07:02:23.697Z,66.80
2019-02-11T07:04:57.133Z,66.82
2019-02-11T07:07:30.623Z,66.68
2019-02-11T07:10:06.260Z,66.41
2019-02-11T07:12:39.755Z,66.39
2019-02-11T07:15:21.479Z,66.59
2019-02-11T07:17:49.928Z,66.51
2019-02-11T07:20:23.545Z,66.43
2019-02-11T07:22:56.981Z,66.12
2019-02-11T07:25:30.441Z,66.34
2019-02-11T07:28:04.030Z,65.49
2019-02-11T07:30:37.643Z,65.89
2019-02-11T07:33:11.217Z,65.64
2019-02-11T07:35:44.874Z,65.54
2019-02-11T07:38:18.369Z,65.50
2019-02-11T07:40:51.970Z,65.25
2019-02-11T07:43:27.061Z,65.61
2019-02-11T07:46:02.358Z,65.59
2019-02-11T07:48:35.785Z,65.51
2019-02-11T07:51:09.333Z,65.42
2019-02-11T07:53:42.828Z,65.30
2019-02-11T07:56:16.418Z,65.23
2019-02-11T07:58:49.860Z,64.40
2019-02-11T08:01:23.339Z,64.96
2019-02-11T08:03:56.858Z,64.86
2019-02-11T08:06:30.447Z,64.89
2019-02-11T08:09:06.481Z,64.68
2019-02-11T08:11:40.011Z,63.45
2019-02-11T08:14:13.464Z,63.95
2019-02-11T08:16:46.993Z,62.80
2019-02-11T08:19:20.484Z,63.78
2019-02-11T08:21:54.036Z,63.15
2019-02-11T08:24:27.550Z,63.05
2019-02-11T08:27:01.039Z,63.18
2019-02-11T08:29:34.593Z,63.21
2019-02-11T08:32:08.122Z,62.85
2019-02-11T08:34:41.584Z,62.48
2019-02-11T08:37:15.087Z,62.66
2019-02-11T08:39:48.717Z,62.61
2019-02-11T08:42:22.164Z,62.58
2019-02-11T08:44:55.619Z,62.32
2019-02-11T08:47:29.261Z,62.69
2019-02-11T08:50:02.939Z,62.92
2019-02-11T08:52:36.510Z,63.20
2019-02-11T08:55:10.163Z,62.61
2019-02-11T08:57:43.515Z,62.64
2019-02-11T09:00:17.082Z,62.43
2019-02-11T09:02:50.651Z,61.92
2019-02-11T09:05:24.144Z,62.04
2019-02-11T09:07:57.591Z,61.65
2019-02-11T09:10:31.048Z,61.60
2019-02-11T09:13:04.631Z,61.77
2019-02-11T09:15:38.170Z,60.50
2019-02-11T09:18:11.669Z,60.75
2019-02-11T09:20:45.143Z,60.29
2019-02-11T09:23:18.711Z,60.54
2019-02-11T09:25:52.245Z,59.95
2019-02-11T09:28:25.690Z,60.63
2019-02-11T09:30:59.289Z,60.75
2019-02-11T09:33:32.844Z,59.37
2019-02-11T09:36:06.390Z,59.24
2019-02-11T09:38:40.019Z,59.63
2019-02-11T09:41:14.757Z,58.50
2019-02-11T09:43:48.183Z,57.75
2019-02-11T09:46:21.838Z,57.32
2019-02-11T09:48:55.367Z,56.27
2019-02-11T09:51:29.029Z,55.69
2019-02-11T09:54:02.818Z,57.13
2019-02-11T09:56:36.287Z,57.63
2019-02-11T09:59:09.805Z,56.72
2019-02-11T10:01:43.358Z,57.51
2019-02-11T10:04:16.813Z,57.66
2019-02-11T10:06:50.383Z,57.57
2019-02-11T10:09:24.086Z,57.59
2019-02-11T10:11:57.692Z,56.49
2019-02-11T10:14:31.189Z,57.34
2019-02-11T10:17:04.888Z,56.77
2019-02-11T10:19:38.412Z,54.55
2019-02-11T10:22:12.023Z,56.21
2019-02-11T10:24:45.741Z,55.87
2019-02-11T10:27:19.383Z,56.82
2019-02-11T10:29:52.930Z,55.88
2019-02-11T10:32:26.552Z,55.67
2019-02-11T10:35:00.240Z,55.49
2019-02-11T10:37:33.802Z,55.43
2019-02-11T10:40:10.084Z,56.09
2019-02-11T10:42:43.651Z,57.04
2019-02-11T10:45:17.250Z,56.30
2019-02-11T10:47:50.708Z,52.60
2019-02-11T10:50:24.266Z,55.47
2019-02-11T10:52:57.754Z,54.11
2019-02-11T10:55:31.276Z,53.82
2019-02-11T10:58:05.342Z,54.22
2019-02-11T11:00:39.196Z,53.53
2019-02-11T11:03:12.775Z,54.35
2019-02-11T11:05:46.317Z,53.82
2019-02-11T11:08:19.860Z,54.45
2019-02-11T11:10:53.499Z,53.59
2019-02-11T11:13:26.982Z,53.32
2019-02-11T11:16:01.027Z,54.30
2019-02-11T11:18:34.525Z,54.93
2019-02-11T11:21:09.207Z,55.04
2019-02-11T11:23:42.649Z,55.19
2019-02-11T11:26:16.176Z,55.14
2019-02-11T11:28:49.672Z,55.22
2019-02-11T11:31:23.232Z,55.54
2019-02-11T11:33:56.807Z,54.51
2019-02-11T11:36:30.581Z,55.77
2019-02-11T11:39:06.504Z,56.96
2019-02-11T11:41:40.163Z,58.08
2019-02-11T11:44:13.588Z,58.71
2019-02-11T11:46:47.430Z,59.75
2019-02-11T11:49:21.139Z,59.60
2019-02-11T11:51:54.706Z,59.75
2019-02-11T11:54:28.165Z,58.85
2019-02-11T11:57:01.790Z,57.32
2019-02-11T11:59:35.375Z,57.64
2019-02-11T12:02:08.913Z,57.85
2019-02-11T12:04:42.429Z,58.41
2019-02-11T12:07:16.068Z,58.40
2019-02-11T12:09:49.658Z,58.16
2019-02-11T12:12:23.125Z,58.37
2019-02-11T12:14:56.595Z,57.62
2019-02-11T12:17:30.252Z,57.68
2019-02-11T12:20:03.935Z,57.57
2019-02-11T12:22:37.532Z,57.73
2019-02-11T12:25:13.616Z,56.25
2019-02-11T12:27:47.117Z,55.59
2019-02-11T12:30:25.550Z,55.99
2019-02-11T12:32:59.177Z,54.89
2019-02-11T12:35:32.657Z,55.76
2019-02-11T12:38:06.104Z,55.71
2019-02-11T12:40:39.544Z,56.50
2019-02-11T12:43:13.008Z,56.49
2019-02-11T12:45:46.657Z,56.07
2019-02-11T12:48:20.179Z,54.62
2019-02-11T12:50:53.752Z,54.53
2019-02-11T12:53:27.197Z,53.87
2019-02-11T12:56:02.401Z,52.81
2019-02-11T12:58:35.994Z,54.94
2019-02-11T13:01:09.481Z,53.97
2019-02-11T13:03:43.173Z,53.64
2019-02-11T13:06:16.637Z,54.01
2019-02-11T13:08:50.149Z,54.12
2019-02-11T13:11:23.690Z,53.41
2019-02-11T13:13:57.310Z,52.75
2019-02-11T13:16:30.847Z,53.94
2019-02-11T13:19:04.386Z,54.22
2019-02-11T13:21:37.989Z,54.15
2019-02-11T13:24:11.450Z,54.05
2019-02-11T13:26:44.994Z,54.09
2019-02-11T13:29:18.591Z,54.39
2019-02-11T13:31:52.086Z,54.88
2019-02-11T13:34:25.834Z,53.13
2019-02-11T13:36:59.372Z,54.31
2019-02-11T13:39:32.830Z,55.03
2019-02-11T13:42:06.420Z,55.20
2019-02-11T13:44:39.786Z,57.08
2019-02-11T13:47:13.243Z,57.58
2019-02-11T13:49:47.060Z,57.19
2019-02-11T13:52:20.776Z,56.72
2019-02-11T13:54:54.302Z,56.49
2019-02-11T13:57:27.819Z,54.99
2019-02-11T14:00:01.273Z,54.57
2019-02-11T14:02:35.435Z,53.26
2019-02-11T14:05:09.057Z,53.10
2019-02-11T14:07:42.729Z,51.97
2019-02-11T14:10:16.333Z,52.55
2019-02-11T14:12:50.268Z,51.90
2019-02-11T14:15:23.773Z,52.94
2019-02-11T14:18:13.091Z,53.34
2019-02-11T14:20:44.308Z,52.89
2019-02-11T14:23:18.002Z,51.25
2019-02-11T14:25:51.610Z,52.43
2019-02-11T14:28:25.186Z,52.67
2019-02-11T14:30:58.605Z,51.88
2019-02-11T14:33:32.199Z,51.07
2019-02-11T14:36:05.871Z,50.46
2019-02-11T14:38:39.404Z,51.47
2019-02-11T14:41:12.937Z,51.08
2019-02-11T14:43:46.425Z,51.41
2019-02-11T14:46:19.965Z,51.13
2019-02-11T14:48:53.498Z,52.06
2019-02-11T14:51:27.053Z,51.62
2019-02-11T14:54:00.557Z,51.06
2019-02-11T14:56:34.031Z,51.48
2019-02-11T14:59:07.677Z,52.02
2019-02-11T15:01:41.151Z,51.97
2019-02-11T15:04:14.585Z,51.47
2019-02-11T15:06:48.068Z,51.74
2019-02-11T15:09:21.584Z,52.01
2019-02-11T15:11:57.310Z,51.62
2019-02-11T15:14:30.741Z,51.03
2019-02-11T15:17:04.275Z,52.04
2019-02-11T15:19:37.735Z,52.17
2019-02-11T15:22:11.289Z,52.35
2019-02-11T15:24:44.778Z,51.78
2019-02-11T15:27:18.321Z,51.89
2019-02-11T15:29:51.942Z,52.08
2019-02-11T15:32:25.432Z,52.35
2019-02-11T15:34:59.043Z,51.86
2019-02-11T15:37:32.521Z,52.14
2019-02-11T15:40:09.043Z,52.17
2019-02-11T15:42:42.592Z,52.48
2019-02-11T15:45:16.169Z,51.02
2019-02-11T15:47:49.624Z,52.60
2019-02-11T15:50:23.144Z,52.93
2019-02-11T15:52:56.973Z,52.14
2019-02-11T15:55:30.595Z,52.94
2019-02-11T15:58:04.229Z,52.36
2019-02-11T16:00:37.795Z,52.18
2019-02-11T16:03:11.248Z,52.88
2019-02-11T16:05:49.627Z,52.52
2019-02-11T16:08:20.114Z,52.83
2019-02-11T16:11:01.227Z,52.56
2019-02-11T16:13:28.976Z,52.68
2019-02-11T16:16:02.560Z,52.75
2019-02-11T16:18:36.421Z,52.57
2019-02-11T16:21:10.105Z,53.09
2019-02-11T16:23:43.748Z,53.09
2019-02-11T16:26:17.486Z,53.51
2019-02-11T16:28:51.239Z,53.11
2019-02-11T16:31:24.842Z,53.46
2019-02-11T16:33:58.212Z,53.50
2019-02-11T16:36:31.810Z,53.76
2019-02-11T16:39:06.015Z,53.63
2019-02-11T16:41:39.751Z,53.39
2019-02-11T16:44:13.232Z,53.11
2019-02-11T16:46:46.630Z,53.57
2019-02-11T16:49:20.073Z,53.66
2019-02-11T16:51:53.577Z,53.48
2019-02-11T16:54:26.959Z,53.59
2019-02-11T16:57:00.431Z,53.51
2019-02-11T16:59:33.890Z,53.49
2019-02-11T17:02:07.369Z,53.47
2019-02-11T17:04:40.857Z,53.55
2019-02-11T17:07:14.439Z,53.75
2019-02-11T17:09:47.941Z,53.71
2019-02-11T17:12:21.544Z,53.71
2019-02-11T17:14:54.967Z,53.53
2019-02-11T17:17:28.458Z,52.43
2019-02-11T17:20:01.896Z,53.31
2019-02-11T17:22:35.450Z,53.09
2019-02-11T17:25:10.479Z,53.19
2019-02-11T17:27:44.021Z,53.54
2019-02-11T17:30:23.400Z,53.54
2019-02-11T17:32:56.864Z,53.16
2019-02-11T17:35:30.793Z,52.25
2019-02-11T17:38:05.020Z,53.02
2019-02-11T17:40:38.517Z,52.43
2019-02-11T17:43:12.144Z,52.92
2019-02-11T17:45:45.859Z,52.80
2019-02-11T17:48:20.394Z,52.80
2019-02-11T17:50:54.215Z,52.27
2019-02-11T17:53:27.695Z,52.44
2019-02-11T17:56:01.265Z,52.16
2019-02-11T17:58:34.886Z,52.08
2019-02-11T18:01:08.583Z,52.35
2019-02-11T18:03:42.227Z,51.76
2019-02-11T18:06:15.888Z,52.00
2019-02-11T18:08:49.358Z,51.81
2019-02-11T18:11:23.091Z,51.75
2019-02-11T18:13:56.544Z,51.75
2019-02-11T18:16:30.156Z,51.77
2019-02-11T18:19:04.219Z,51.64
2019-02-11T18:21:37.686Z,51.71
2019-02-11T18:24:11.221Z,51.70
2019-02-11T18:26:44.820Z,51.69
2019-02-11T18:29:18.468Z,51.85
2019-02-11T18:31:52.053Z,51.88
2019-02-11T18:34:25.600Z,51.81
2019-02-11T18:36:59.088Z,51.98
2019-02-11T18:39:32.689Z,52.06
2019-02-11T18:42:06.195Z,51.71
2019-02-11T18:44:39.717Z,51.71
2019-02-11T18:47:13.321Z,51.81
2019-02-11T18:49:46.928Z,51.94
2019-02-11T18:52:20.516Z,52.50
2019-02-11T18:54:54.023Z,52.05
2019-02-11T18:57:27.566Z,52.05
2019-02-11T19:00:10.842Z,52.26
2019-02-11T19:02:44.373Z,52.30
2019-02-11T19:05:18.254Z,52.77
2019-02-11T19:07:52.046Z,53.47
2019-02-11T19:10:25.485Z,54.20
2019-02-11T19:12:59.117Z,54.47
2019-02-11T19:15:32.850Z,54.71
2019-02-11T19:18:06.377Z,55.48
2019-02-11T19:20:39.776Z,56.02
2019-02-11T19:23:13.454Z,56.02
2019-02-11T19:25:47.091Z,55.73
2019-02-11T19:28:20.746Z,55.87
2019-02-11T19:30:54.421Z,56.10
2019-02-11T19:33:28.030Z,55.83
2019-02-11T19:36:01.652Z,56.17
2019-02-11T19:38:35.186Z,55.98
2019-02-11T19:41:08.796Z,56.22
2019-02-11T19:43:42.342Z,56.20
2019-02-11T19:46:15.873Z,56.09
2019-02-11T19:48:49.431Z,56.20
2019-02-11T19:51:22.950Z,56.34
2019-02-11T19:53:56.533Z,56.64
2019-02-11T19:56:30.540Z,56.74
2019-02-11T19:59:04.172Z,56.73
2019-02-11T20:01:37.607Z,56.79
2019-02-11T20:04:11.124Z,56.80
2019-02-11T20:06:44.637Z,56.95
2019-02-11T20:09:18.092Z,56.88
2019-02-11T20:11:51.544Z,56.65
2019-02-11T20:14:25.135Z,56.78
2019-02-11T20:16:58.790Z,56.96
2019-02-11T20:19:32.185Z,56.95
2019-02-11T20:22:05.770Z,57.54
2019-02-11T20:24:39.269Z,57.77
2019-02-11T20:27:12.829Z,57.41
2019-02-11T20:29:46.315Z,57.46
2019-02-11T20:32:19.872Z,57.48
2019-02-11T20:34:53.354Z,57.60
2019-02-11T20:37:26.926Z,57.60
2019-02-11T20:40:03.429Z,57.64
2019-02-11T20:42:35.639Z,57.95
2019-02-11T20:45:12.207Z,57.72
2019-02-11T20:47:45.866Z,57.71
2019-02-11T20:50:19.382Z,57.59
2019-02-11T20:52:52.844Z,57.71
2019-02-11T20:55:26.300Z,57.66
2019-02-11T20:58:00.835Z,57.74
2019-02-11T21:00:34.278Z,57.79
2019-02-11T21:03:08.644Z,58.10
2019-02-11T21:05:42.229Z,58.26
2019-02-11T21:08:15.881Z,58.24
2019-02-11T21:10:49.372Z,58.19
2019-02-11T21:13:23.016Z,58.04
2019-02-11T21:15:56.762Z,58.06
2019-02-11T21:18:30.301Z,58.14
2019-02-11T21:21:03.802Z,58.27
2019-02-11T21:23:38.171Z,58.39
2019-02-11T21:26:11.631Z,58.66
2019-02-11T21:28:45.161Z,58.35
2019-02-11T21:31:18.785Z,58.25
2019-02-11T21:33:52.310Z,58.14
2019-02-11T21:36:25.754Z,58.20
2019-02-11T21:38:59.246Z,58.35
2019-02-11T21:41:32.685Z,58.46
2019-02-11T21:44:06.323Z,58.51
2019-02-11T21:46:39.990Z,58.34
2019-02-11T21:49:13.574Z,58.32
2019-02-11T21:51:47.135Z,58.32
2019-02-11T21:54:20.723Z,58.45
2019-02-11T21:56:54.147Z,58.35
2019-02-11T21:59:27.748Z,58.05
2019-02-11T22:02:01.235Z,58.21
2019-02-11T22:04:34.762Z,58.20
2019-02-11T22:07:08.277Z,57.98
2019-02-11T22:09:41.783Z,57.93
2019-02-11T22:12:15.314Z,58.19
2019-02-11T22:14:48.950Z,57.96
2019-02-11T22:17:22.460Z,57.63
2019-02-11T22:19:55.927Z,57.61
2019-02-11T22:22:29.459Z,57.46
2019-02-11T22:25:03.308Z,57.50
2019-02-11T22:27:36.815Z,57.54
2019-02-11T22:30:16.590Z,57.54
2019-02-11T22:32:50.101Z,57.55
2019-02-11T22:35:23.591Z,57.69
2019-02-11T22:37:57.130Z,57.56
2019-02-11T22:40:30.528Z,57.77
2019-02-11T22:43:04.056Z,57.44
2019-02-11T22:45:37.675Z,57.64
2019-02-11T22:48:11.035Z,57.40
2019-02-11T22:50:44.560Z,57.45
2019-02-11T22:53:18.234Z,57.74
2019-02-11T22:55:51.711Z,57.75
2019-02-11T22:58:25.164Z,57.68
2019-02-11T23:01:00.280Z,58.15
2019-02-11T23:03:34.635Z,58.15
2019-02-11T23:06:08.211Z,58.11
2019-02-11T23:08:41.677Z,58.09
2019-02-11T23:11:15.097Z,58.11
2019-02-11T23:13:48.734Z,58.03
2019-02-11T23:16:22.155Z,57.99
2019-02-11T23:18:55.681Z,57.93
2019-02-11T23:21:29.134Z,58.11
2019-02-11T23:24:02.703Z,58.25
2019-02-11T23:26:36.203Z,58.20
2019-02-11T23:29:09.837Z,58.15
2019-02-11T23:31:43.372Z,58.12
2019-02-11T23:34:16.862Z,58.27
2019-02-11T23:36:50.335Z,58.28
2019-02-11T23:39:23.965Z,58.40
2019-02-11T23:41:57.537Z,58.40
2019-02-11T23:44:31.169Z,58.57
2019-02-11T23:47:04.626Z,58.47
2019-02-11T23:49:38.116Z,58.48
2019-02-11T23:52:11.714Z,58.19
2019-02-11T23:54:45.208Z,58.19
2019-02-11T23:57:18.832Z,58.38
2019-02-11T23:59:52.526Z,57.85
